Time;durP1;ratioP1;P1;durP2;ratioP2;P2;SDS_P1;SDS_P2;PMS_P1;PMS_P2;Temp;Humidity;BMP_temperature;BMP_pressure;BME280_temperature;BME280_humidity;BME280_pressure;Samples;Min_cycle;Max_cycle;Signal;HPM_P1;HPM_P2
2023/09/26 00:00:05;;;;;;;8.60;6.55;;;17.20;99.90;;;;;;5126074;27;20042;-64
2023/09/26 00:02:30;;;;;;;9.48;6.90;;;17.20;99.90;;;;;;5126509;27;20052;-63
2023/09/26 00:04:58;;;;;;;9.40;6.80;;;17.10;99.90;;;;;;5125590;27;20027;-63
2023/09/26 00:07:24;;;;;;;9.20;7.20;;;17.00;99.90;;;;;;5125174;27;20493;-63
2023/09/26 00:09:50;;;;;;;9.13;7.03;;;17.00;99.90;;;;;;5125718;27;20432;-63
2023/09/26 00:12:16;;;;;;;8.52;6.63;;;16.90;99.90;;;;;;5126586;27;20035;-64
2023/09/26 00:14:42;;;;;;;9.90;6.93;;;16.80;99.90;;;;;;5124818;27;20039;-63
2023/09/26 00:17:07;;;;;;;8.77;6.93;;;16.70;99.90;;;;;;5126826;27;20119;-63
2023/09/26 00:19:33;;;;;;;9.57;7.18;;;16.70;99.90;;;;;;5126532;27;20031;-63
2023/09/26 00:21:59;;;;;;;8.18;6.90;;;16.60;99.90;;;;;;5125233;27;20035;-63
2023/09/26 00:24:25;;;;;;;9.35;6.82;;;16.60;99.90;;;;;;5107228;27;20243;-64
2023/09/26 00:26:50;;;;;;;7.75;6.80;;;16.50;99.90;;;;;;5107642;27;20114;-64
2023/09/26 00:29:16;;;;;;;10.60;7.63;;;16.50;99.90;;;;;;5126315;27;20038;-63
2023/09/26 00:31:41;;;;;;;8.77;7.13;;;16.50;99.90;;;;;;5125907;27;20383;-63
2023/09/26 00:34:07;;;;;;;8.98;7.45;;;16.40;99.90;;;;;;5124958;27;20062;-63
2023/09/26 00:36:33;;;;;;;7.60;6.45;;;16.40;99.90;;;;;;5126114;27;20135;-63
2023/09/26 00:38:58;;;;;;;8.38;7.25;;;16.30;99.90;;;;;;5107027;27;20048;-63
2023/09/26 00:41:24;;;;;;;10.10;8.30;;;16.20;99.90;;;;;;5125871;27;23244;-63
2023/09/26 00:43:50;;;;;;;9.73;7.47;;;16.20;99.90;;;;;;5126180;27;20042;-65
2023/09/26 00:46:17;;;;;;;10.57;7.65;;;16.20;99.90;;;;;;5125879;27;20479;-65
2023/09/26 00:48:43;;;;;;;9.70;8.00;;;16.20;99.90;;;;;;5125864;27;20043;-63
2023/09/26 00:51:09;;;;;;;8.98;7.40;;;16.00;99.90;;;;;;5089784;27;20034;-63
2023/09/26 00:53:38;;;;;;;9.45;7.35;;;16.00;99.90;;;;;;5106978;27;20119;-64
2023/09/26 00:56:04;;;;;;;9.32;7.07;;;16.00;99.90;;;;;;5125434;27;20086;-63
2023/09/26 00:58:31;;;;;;;9.52;7.43;;;16.00;99.90;;;;;;5107545;27;20027;-64
2023/09/26 01:00:58;;;;;;;8.23;7.25;;;15.90;99.90;;;;;;5107253;27;20058;-62
2023/09/26 01:03:24;;;;;;;8.38;6.70;;;15.90;99.90;;;;;;5124883;27;20031;-63
2023/09/26 01:05:50;;;;;;;9.40;7.15;;;15.90;99.90;;;;;;5124881;27;20039;-63
2023/09/26 01:08:16;;;;;;;8.45;6.88;;;15.80;99.90;;;;;;5125619;27;20023;-63
2023/09/26 01:10:44;;;;;;;8.02;6.90;;;15.80;99.90;;;;;;5090824;27;20171;-63
2023/09/26 01:13:11;;;;;;;10.38;8.10;;;15.70;99.90;;;;;;5105864;27;20035;-63
2023/09/26 01:15:41;;;;;;;8.65;7.47;;;15.80;99.90;;;;;;5124587;27;20051;-63
2023/09/26 01:18:08;;;;;;;9.00;7.63;;;15.80;99.90;;;;;;5124399;27;20649;-64
2023/09/26 01:20:37;;;;;;;10.35;7.75;;;15.70;99.90;;;;;;5125358;27;20043;-63
2023/09/26 01:23:08;;;;;;;11.77;8.35;;;15.70;99.90;;;;;;5124503;27;20041;-62
2023/09/26 01:25:34;;;;;;;10.52;8.40;;;15.70;99.90;;;;;;5090718;27;20106;-63
2023/09/26 01:28:06;;;;;;;9.48;7.68;;;15.60;99.90;;;;;;5124280;27;20042;-63
2023/09/26 01:30:37;;;;;;;9.82;8.60;;;15.60;99.90;;;;;;5125707;27;20505;-64
2023/09/26 01:33:04;;;;;;;10.43;8.23;;;15.60;99.90;;;;;;5123928;27;20300;-63
2023/09/26 01:35:30;;;;;;;9.00;7.78;;;15.60;99.90;;;;;;5124857;27;20031;-63
2023/09/26 01:37:56;;;;;;;9.73;8.10;;;15.70;99.90;;;;;;5123657;27;20035;-64
2023/09/26 01:40:22;;;;;;;10.02;7.70;;;15.60;99.90;;;;;;5124465;27;20060;-63
2023/09/26 01:42:48;;;;;;;9.05;7.45;;;15.70;99.90;;;;;;5124918;27;20497;-63
2023/09/26 01:45:14;;;;;;;9.30;7.57;;;15.60;99.90;;;;;;5106255;27;20043;-63
2023/09/26 01:47:51;;;;;;;9.10;7.75;;;15.70;99.90;;;;;;5124202;27;20496;-63
2023/09/26 01:50:20;;;;;;;10.70;7.55;;;15.80;99.90;;;;;;5125187;27;20370;-63
2023/09/26 01:52:46;;;;;;;10.45;8.00;;;15.80;99.90;;;;;;5124926;27;20413;-63
2023/09/26 01:55:14;;;;;;;9.70;7.65;;;15.80;99.90;;;;;;5124711;27;20039;-62
2023/09/26 01:57:40;;;;;;;9.55;8.52;;;15.80;99.90;;;;;;5123882;27;20466;-64
2023/09/26 02:00:11;;;;;;;10.40;7.50;;;15.80;99.90;;;;;;5123503;27;20037;-63
2023/09/26 02:02:49;;;;;;;10.07;7.95;;;15.80;99.90;;;;;;5122880;27;20031;-64
2023/09/26 02:05:19;;;;;;;11.95;8.60;;;15.90;99.90;;;;;;5123369;27;20148;-64
2023/09/26 02:07:46;;;;;;;9.48;7.85;;;15.90;99.90;;;;;;5123247;27;20030;-64
2023/09/26 02:10:12;;;;;;;9.02;7.85;;;15.90;99.90;;;;;;5105097;27;20177;-63
2023/09/26 02:12:43;;;;;;;13.98;8.27;;;15.90;99.90;;;;;;5123817;27;20403;-63
2023/09/26 02:15:11;;;;;;;9.75;7.57;;;15.90;99.90;;;;;;5124596;27;20522;-62
2023/09/26 02:17:38;;;;;;;9.65;8.27;;;16.00;99.90;;;;;;5123667;27;20038;-63
2023/09/26 02:20:15;;;;;;;12.10;8.52;;;15.90;99.90;;;;;;5124946;27;20042;-63
2023/09/26 02:22:51;;;;;;;9.52;8.20;;;15.90;99.90;;;;;;5122985;27;20095;-62
2023/09/26 02:25:19;;;;;;;11.10;7.97;;;15.90;99.90;;;;;;5123769;27;20176;-64
2023/09/26 02:27:45;;;;;;;10.45;8.38;;;15.90;99.90;;;;;;5122428;27;20043;-64
2023/09/26 02:30:14;;;;;;;9.68;7.82;;;15.90;99.90;;;;;;5124372;27;20122;-63
2023/09/26 02:32:40;;;;;;;10.20;7.80;;;15.90;99.90;;;;;;5123488;27;20501;-62
2023/09/26 02:35:11;;;;;;;9.55;7.70;;;15.80;99.90;;;;;;5123738;27;20027;-63
2023/09/26 02:37:38;;;;;;;10.55;8.13;;;15.90;99.90;;;;;;5122353;27;20050;-64
2023/09/26 02:40:09;;;;;;;9.77;8.07;;;15.80;99.90;;;;;;5106102;28;20118;-62
2023/09/26 02:42:35;;;;;;;11.88;8.02;;;15.80;99.90;;;;;;5105342;27;20027;-63
2023/09/26 02:45:02;;;;;;;9.15;8.00;;;15.70;99.90;;;;;;5122901;27;20023;-64
2023/09/26 02:47:27;;;;;;;11.40;7.93;;;15.70;99.90;;;;;;5123586;27;20031;-64
2023/09/26 02:49:53;;;;;;;10.65;7.93;;;15.60;99.90;;;;;;5123518;28;20476;-63
2023/09/26 02:52:19;;;;;;;8.52;7.63;;;15.70;99.90;;;;;;5123376;28;20088;-63
2023/09/26 02:54:44;;;;;;;11.27;8.57;;;15.60;99.90;;;;;;5122819;28;20443;-64
2023/09/26 02:57:10;;;;;;;12.80;8.60;;;15.90;99.90;;;;;;5104774;28;20046;-64
2023/09/26 02:59:36;;;;;;;9.85;8.85;;;15.50;99.90;;;;;;5122154;28;20039;-64
2023/09/26 03:02:02;;;;;;;10.75;8.75;;;15.50;99.90;;;;;;5104614;28;20039;-65
2023/09/26 03:04:28;;;;;;;11.10;8.68;;;15.40;99.90;;;;;;5103791;28;20050;-64
2023/09/26 03:06:54;;;;;;;11.43;8.80;;;15.40;99.90;;;;;;5123968;28;20039;-63
2023/09/26 03:09:19;;;;;;;10.45;9.35;;;15.40;99.90;;;;;;5122566;28;20130;-62
2023/09/26 03:11:45;;;;;;;11.23;10.00;;;15.30;99.90;;;;;;5122954;28;20462;-63
2023/09/26 03:14:11;;;;;;;13.63;10.00;;;15.20;99.90;;;;;;5104561;28;20534;-62
2023/09/26 03:16:37;;;;;;;11.18;9.85;;;15.20;99.90;;;;;;5123714;28;20477;-63
2023/09/26 03:19:03;;;;;;;11.05;9.45;;;15.10;99.90;;;;;;5123484;28;20039;-62
2023/09/26 03:21:29;;;;;;;11.88;10.40;;;15.10;99.90;;;;;;5123128;28;20051;-63
2023/09/26 03:23:55;;;;;;;11.50;10.30;;;15.10;99.90;;;;;;5122686;27;20498;-63
2023/09/26 03:26:20;;;;;;;12.27;10.70;;;15.00;99.90;;;;;;5122555;28;20130;-63
2023/09/26 03:28:46;;;;;;;11.07;9.85;;;15.00;99.90;;;;;;5102320;28;20047;-63
2023/09/26 03:31:12;;;;;;;14.05;10.60;;;15.00;99.90;;;;;;5123458;28;20480;-62
2023/09/26 03:33:38;;;;;;;12.13;9.95;;;15.00;99.90;;;;;;5122571;28;20038;-64
2023/09/26 03:36:04;;;;;;;10.80;9.70;;;14.90;99.90;;;;;;5122841;28;20049;-63
2023/09/26 03:38:30;;;;;;;12.48;10.85;;;14.90;99.90;;;;;;5102489;28;20471;-63
2023/09/26 03:41:04;;;;;;;12.68;10.80;;;14.80;99.90;;;;;;5123692;28;20427;-63
2023/09/26 03:43:30;;;;;;;12.88;10.38;;;14.80;99.90;;;;;;5122914;28;20038;-63
2023/09/26 03:46:06;;;;;;;11.98;10.52;;;14.80;99.90;;;;;;5122579;28;20035;-63
2023/09/26 03:48:34;;;;;;;11.52;10.18;;;14.80;99.90;;;;;;5122667;28;20039;-63
2023/09/26 03:51:13;;;;;;;13.15;10.57;;;14.70;99.90;;;;;;5104048;28;20027;-62
2023/09/26 03:53:40;;;;;;;12.80;11.00;;;14.60;99.90;;;;;;5123322;28;20096;-62
2023/09/26 03:56:07;;;;;;;12.60;11.25;;;14.60;99.90;;;;;;5124196;27;20088;-62
2023/09/26 03:58:34;;;;;;;13.20;11.02;;;14.60;99.90;;;;;;5125402;27;20035;-64
2023/09/26 04:01:10;;;;;;;12.20;10.52;;;14.50;99.90;;;;;;5127076;27;20032;-63
2023/09/26 04:03:37;;;;;;;13.65;11.40;;;14.50;99.90;;;;;;5125155;27;20062;-63
2023/09/26 04:06:03;;;;;;;14.38;12.80;;;14.50;99.90;;;;;;5125852;27;20027;-62
2023/09/26 04:08:28;;;;;;;13.10;11.35;;;14.50;99.90;;;;;;5108193;27;20027;-63
2023/09/26 04:10:54;;;;;;;15.38;12.32;;;14.40;99.90;;;;;;5125953;27;20087;-63
2023/09/26 04:13:20;;;;;;;13.77;12.32;;;14.40;99.90;;;;;;5126030;27;20034;-64
2023/09/26 04:15:46;;;;;;;16.60;12.85;;;14.40;99.90;;;;;;5126579;27;20402;-64
2023/09/26 04:18:11;;;;;;;13.80;12.32;;;14.40;99.90;;;;;;5126204;27;20071;-63
2023/09/26 04:20:38;;;;;;;15.18;12.57;;;14.30;99.90;;;;;;5126922;27;20386;-64
2023/09/26 04:23:04;;;;;;;14.23;12.75;;;14.30;99.90;;;;;;5107550;27;20043;-63
2023/09/26 04:25:30;;;;;;;14.85;13.15;;;14.30;99.90;;;;;;5107788;27;20035;-63
2023/09/26 04:27:56;;;;;;;15.68;13.30;;;14.30;99.90;;;;;;5126013;27;20047;-63
2023/09/26 04:30:23;;;;;;;15.77;14.05;;;14.30;99.90;;;;;;5125656;27;20050;-62
2023/09/26 04:32:48;;;;;;;14.52;12.98;;;14.20;99.90;;;;;;5107128;27;20039;-62
2023/09/26 04:35:14;;;;;;;19.00;14.00;;;14.20;99.90;;;;;;5126086;27;20035;-63
2023/09/26 04:37:41;;;;;;;16.15;13.60;;;14.20;99.90;;;;;;5125600;27;20037;-63
2023/09/26 04:40:10;;;;;;;15.38;13.77;;;14.20;99.90;;;;;;5125561;27;20035;-63
2023/09/26 04:42:41;;;;;;;15.60;13.93;;;14.20;99.90;;;;;;5125863;27;20489;-63
2023/09/26 04:45:07;;;;;;;15.50;13.90;;;14.10;99.90;;;;;;5125559;27;20043;-63
2023/09/26 04:47:33;;;;;;;14.55;12.95;;;14.10;99.90;;;;;;5125815;27;20074;-63
2023/09/26 04:49:59;;;;;;;17.65;14.32;;;14.10;99.90;;;;;;5125661;27;20082;-63
2023/09/26 04:52:25;;;;;;;15.05;13.38;;;14.10;99.90;;;;;;5126122;27;20050;-63
2023/09/26 04:54:51;;;;;;;16.05;13.65;;;14.00;99.90;;;;;;5126256;27;20039;-63
2023/09/26 04:57:16;;;;;;;15.95;14.25;;;14.10;99.90;;;;;;5125564;27;20493;-62
2023/09/26 04:59:42;;;;;;;14.35;12.85;;;14.00;99.90;;;;;;5125805;27;20031;-62
2023/09/26 05:02:08;;;;;;;15.48;13.73;;;13.90;99.90;;;;;;5088423;27;20039;-63
2023/09/26 05:04:33;;;;;;;15.68;13.07;;;14.00;99.90;;;;;;5125317;27;20066;-63
2023/09/26 05:06:59;;;;;;;15.55;13.75;;;13.90;99.90;;;;;;5125744;27;22965;-63
2023/09/26 05:09:25;;;;;;;16.33;13.18;;;14.00;99.90;;;;;;5125420;27;20039;-62
2023/09/26 05:11:50;;;;;;;17.83;13.55;;;14.00;99.90;;;;;;5125575;27;20402;-62
2023/09/26 05:14:16;;;;;;;15.95;13.55;;;13.90;99.90;;;;;;5125429;27;20067;-63
2023/09/26 05:16:43;;;;;;;14.93;13.43;;;13.90;99.90;;;;;;5124060;27;20079;-63
2023/09/26 05:19:08;;;;;;;17.92;13.77;;;13.90;99.90;;;;;;5124853;27;20063;-64
2023/09/26 05:21:34;;;;;;;18.75;13.73;;;13.90;99.90;;;;;;5090382;27;20031;-63
2023/09/26 05:24:00;;;;;;;16.17;13.93;;;13.90;99.90;;;;;;5106854;27;20035;-64
2023/09/26 05:26:26;;;;;;;14.88;13.05;;;13.90;99.90;;;;;;5124301;27;20095;-64
2023/09/26 05:28:51;;;;;;;16.13;13.75;;;13.90;99.90;;;;;;5125301;27;20043;-63
2023/09/26 05:31:18;;;;;;;14.80;12.93;;;13.90;99.90;;;;;;5089255;27;20034;-64
2023/09/26 05:33:44;;;;;;;15.45;13.30;;;13.90;99.90;;;;;;5124988;27;20125;-63
2023/09/26 05:36:09;;;;;;;16.67;12.98;;;13.80;99.90;;;;;;5124638;27;20135;-63
2023/09/26 05:38:35;;;;;;;16.13;14.38;;;13.90;99.90;;;;;;5124691;27;20066;-63
2023/09/26 05:41:01;;;;;;;15.40;13.70;;;13.80;99.90;;;;;;5124340;27;20448;-62
2023/09/26 05:43:28;;;;;;;16.80;14.18;;;13.80;99.90;;;;;;5125139;27;20058;-63
2023/09/26 05:45:54;;;;;;;16.38;13.75;;;13.80;99.90;;;;;;5124511;27;20035;-63
2023/09/26 05:48:20;;;;;;;16.80;15.00;;;13.80;99.90;;;;;;5124601;27;20431;-64
2023/09/26 05:50:46;;;;;;;17.30;14.43;;;13.80;99.90;;;;;;5104660;27;20046;-63
2023/09/26 05:53:12;;;;;;;15.80;13.35;;;13.70;99.90;;;;;;5106234;27;20557;-63
2023/09/26 05:55:38;;;;;;;17.25;14.35;;;13.70;99.90;;;;;;5124902;27;20027;-63
2023/09/26 05:58:04;;;;;;;16.15;14.05;;;13.70;99.90;;;;;;5124363;27;20051;-63
2023/09/26 06:00:29;;;;;;;15.75;13.88;;;13.70;99.90;;;;;;5124537;27;20036;-63
2023/09/26 06:02:55;;;;;;;15.18;13.57;;;13.60;99.90;;;;;;5123895;27;20039;-63
2023/09/26 06:05:21;;;;;;;17.92;14.25;;;13.70;99.90;;;;;;5123590;27;20281;-64
2023/09/26 06:07:47;;;;;;;15.43;13.73;;;13.60;99.90;;;;;;5124044;27;20111;-64
2023/09/26 06:10:12;;;;;;;15.85;13.57;;;13.60;99.90;;;;;;5124709;27;20521;-63
2023/09/26 06:12:39;;;;;;;15.60;13.45;;;13.60;99.90;;;;;;5124258;27;20067;-63
2023/09/26 06:15:11;;;;;;;20.38;14.20;;;13.60;99.90;;;;;;5124643;27;20398;-63
2023/09/26 06:17:39;;;;;;;16.52;13.02;;;13.60;99.90;;;;;;5123018;27;20047;-62
2023/09/26 06:20:08;;;;;;;15.77;13.23;;;13.60;99.90;;;;;;5123603;27;20537;-63
2023/09/26 06:22:34;;;;;;;15.40;13.20;;;13.60;99.90;;;;;;5123726;27;20450;-62
2023/09/26 06:25:02;;;;;;;16.30;13.70;;;13.70;99.90;;;;;;5124186;27;20073;-63
2023/09/26 06:27:27;;;;;;;16.33;13.35;;;13.60;99.90;;;;;;5104930;27;20096;-63
2023/09/26 06:29:53;;;;;;;16.55;13.02;;;13.70;99.90;;;;;;5105647;27;20031;-64
2023/09/26 06:32:19;;;;;;;15.18;13.38;;;13.70;99.90;;;;;;5123660;27;20035;-63
2023/09/26 06:34:44;;;;;;;14.90;12.55;;;13.70;99.90;;;;;;5123733;27;20035;-63
2023/09/26 06:37:10;;;;;;;17.30;10.18;;;13.80;99.90;;;;;;5104487;27;20043;-63
2023/09/26 06:39:36;;;;;;;15.77;13.05;;;13.80;99.90;;;;;;5123748;27;20051;-64
2023/09/26 06:42:02;;;;;;;17.48;12.93;;;13.80;99.90;;;;;;5105289;28;20043;-64
2023/09/26 06:44:29;;;;;;;16.48;13.32;;;13.80;99.90;;;;;;5124391;27;20478;-62
2023/09/26 06:46:54;;;;;;;17.73;13.02;;;13.80;99.90;;;;;;5123136;27;20114;-64
2023/09/26 06:49:20;;;;;;;16.35;9.63;;;13.80;99.90;;;;;;5123320;27;20126;-63
2023/09/26 06:51:46;;;;;;;16.33;10.35;;;13.90;99.90;;;;;;5123620;28;20039;-63
2023/09/26 06:54:11;;;;;;;16.65;12.93;;;13.90;99.90;;;;;;5105197;28;20035;-63
2023/09/26 06:56:37;;;;;;;15.30;13.05;;;14.00;99.90;;;;;;5123616;28;20080;-64
2023/09/26 06:59:04;;;;;;;16.08;12.60;;;14.00;99.90;;;;;;5123325;28;20084;-64
2023/09/26 07:01:30;;;;;;;17.33;13.07;;;14.00;99.90;;;;;;5124298;28;20031;-64
2023/09/26 07:03:56;;;;;;;14.02;12.52;;;14.10;99.90;;;;;;5123444;28;20118;-64
2023/09/26 07:06:21;;;;;;;18.50;10.27;;;14.10;99.90;;;;;;5123074;28;20114;-64
2023/09/26 07:08:47;;;;;;;13.57;12.15;;;14.20;99.90;;;;;;5122307;28;20066;-63
2023/09/26 07:11:13;;;;;;;15.77;13.18;;;14.20;99.90;;;;;;5105117;28;20058;-63
2023/09/26 07:13:39;;;;;;;17.38;12.93;;;14.20;99.90;;;;;;5123698;28;20058;-64
2023/09/26 07:16:07;;;;;;;15.70;12.27;;;14.30;99.90;;;;;;5123090;28;20071;-62
2023/09/26 07:18:34;;;;;;;18.05;10.50;;;14.40;99.90;;;;;;5122555;28;20088;-64
2023/09/26 07:21:04;;;;;;;15.15;12.32;;;14.40;99.90;;;;;;5122614;28;20478;-63
2023/09/26 07:23:37;;;;;;;15.18;12.52;;;14.40;99.90;;;;;;5122846;28;20058;-63
2023/09/26 07:26:13;;;;;;;16.48;12.85;;;14.50;99.90;;;;;;5123448;28;20100;-63
2023/09/26 07:28:40;;;;;;;13.60;12.15;;;14.60;99.90;;;;;;5122145;27;20035;-64
2023/09/26 07:31:08;;;;;;;13.43;12.02;;;14.60;99.90;;;;;;5124890;27;20060;-63
2023/09/26 07:33:35;;;;;;;17.50;12.25;;;14.70;99.90;;;;;;5127388;27;20291;-63
2023/09/26 07:36:01;;;;;;;13.43;12.02;;;14.80;99.90;;;;;;5127178;27;20493;-63
2023/09/26 07:38:26;;;;;;;14.90;11.68;;;14.80;99.90;;;;;;5127160;27;20034;-62
2023/09/26 07:40:52;;;;;;;14.10;9.98;;;14.90;99.90;;;;;;5127223;27;20035;-63
2023/09/26 07:43:18;;;;;;;14.57;11.50;;;15.00;99.90;;;;;;5127309;27;20494;-63
2023/09/26 07:45:45;;;;;;;14.63;11.13;;;15.10;99.90;;;;;;5127584;27;20037;-63
2023/09/26 07:48:10;;;;;;;13.75;11.40;;;15.10;99.90;;;;;;5126144;27;20050;-62
2023/09/26 07:50:36;;;;;;;16.30;11.13;;;15.20;99.90;;;;;;5126511;27;20274;-64
2023/09/26 07:53:02;;;;;;;14.18;11.10;;;15.20;99.90;;;;;;5127014;27;20031;-64
2023/09/26 07:55:28;;;;;;;13.40;11.10;;;15.30;99.90;;;;;;5127013;27;20363;-63
2023/09/26 07:57:54;;;;;;;14.88;9.80;;;15.30;99.90;;;;;;5127036;27;20066;-62
2023/09/26 08:00:21;;;;;;;15.30;11.75;;;15.30;99.90;;;;;;5126372;27;20502;-63
2023/09/26 08:02:46;;;;;;;13.98;11.07;;;15.30;99.90;;;;;;5126788;27;20031;-63
2023/09/26 08:05:12;;;;;;;16.13;10.10;;;15.40;99.90;;;;;;5126247;27;20039;-64
2023/09/26 08:07:42;;;;;;;12.52;10.68;;;15.50;99.90;;;;;;5125514;27;20031;-63
2023/09/26 08:10:08;;;;;;;18.10;10.00;;;15.50;99.90;;;;;;5108980;27;20031;-63
2023/09/26 08:12:36;;;;;;;14.98;11.50;;;15.50;99.90;;;;;;5126761;27;20027;-63
2023/09/26 08:15:02;;;;;;;16.25;11.00;;;15.60;99.90;;;;;;5108012;27;20035;-64
2023/09/26 08:17:28;;;;;;;12.93;11.07;;;15.60;99.90;;;;;;5125835;27;20063;-64
2023/09/26 08:19:53;;;;;;;16.67;11.38;;;15.70;99.90;;;;;;5126695;27;20063;-63
2023/09/26 08:22:19;;;;;;;18.40;11.88;;;15.70;99.90;;;;;;5125458;27;20054;-63
2023/09/26 08:24:45;;;;;;;14.68;11.40;;;15.70;99.90;;;;;;5126210;27;20042;-64
2023/09/26 08:27:11;;;;;;;14.50;10.73;;;15.80;99.90;;;;;;5126302;27;20043;-63
2023/09/26 08:29:36;;;;;;;13.35;10.85;;;15.80;99.90;;;;;;5126440;27;20043;-64
2023/09/26 08:32:02;;;;;;;14.30;11.27;;;15.90;99.90;;;;;;5126597;27;20134;-63
2023/09/26 08:34:28;;;;;;;14.23;11.25;;;16.00;99.90;;;;;;5125845;27;20406;-64
2023/09/26 08:36:54;;;;;;;14.85;10.27;;;16.00;99.90;;;;;;5126193;27;20042;-63
2023/09/26 08:39:20;;;;;;;15.18;10.68;;;16.10;99.90;;;;;;5074164;27;20031;-64
2023/09/26 08:41:46;;;;;;;12.88;11.00;;;16.10;99.90;;;;;;5125286;27;20042;-63
2023/09/26 08:44:12;;;;;;;13.65;10.43;;;16.20;99.90;;;;;;5126128;27;20096;-63
2023/09/26 08:46:39;;;;;;;15.20;10.38;;;16.20;99.90;;;;;;5125626;27;20151;-64
2023/09/26 08:49:05;;;;;;;14.85;10.27;;;16.30;99.90;;;;;;5124960;27;20039;-63
2023/09/26 08:51:33;;;;;;;15.70;10.52;;;16.30;99.90;;;;;;5125667;27;20471;-64
2023/09/26 08:53:59;;;;;;;15.32;10.80;;;16.40;99.90;;;;;;5125229;27;20397;-64
2023/09/26 08:56:24;;;;;;;14.40;11.25;;;16.50;99.90;;;;;;5126236;27;20039;-63
2023/09/26 08:58:54;;;;;;;11.82;10.38;;;16.60;99.90;;;;;;5106312;27;20459;-63
2023/09/26 09:01:20;;;;;;;14.70;10.57;;;16.80;99.90;;;;;;5106457;27;20090;-64
2023/09/26 09:03:46;;;;;;;14.80;10.13;;;17.00;99.90;;;;;;5125940;27;20499;-63
2023/09/26 09:06:12;;;;;;;13.13;10.32;;;17.30;99.90;;;;;;5125329;27;20047;-62
2023/09/26 09:08:38;;;;;;;17.08;9.75;;;17.50;99.90;;;;;;5125382;27;20088;-63
2023/09/26 09:11:04;;;;;;;13.15;10.52;;;17.70;99.90;;;;;;5125465;27;20035;-63
2023/09/26 09:13:38;;;;;;;14.23;9.60;;;17.80;99.90;;;;;;5105660;27;20483;-63
2023/09/26 09:16:17;;;;;;;11.63;9.52;;;18.00;99.90;;;;;;5105222;27;20027;-64
2023/09/26 09:18:47;;;;;;;11.77;9.55;;;18.10;99.90;;;;;;5122973;27;21076;-63
2023/09/26 09:21:30;;;;;;;11.23;9.40;;;18.30;99.90;;;;;;5125098;27;20031;-63
2023/09/26 09:24:00;;;;;;;11.38;8.68;;;18.40;99.90;;;;;;5125236;27;20059;-63
2023/09/26 09:26:30;;;;;;;12.80;9.27;;;18.50;99.90;;;;;;5125398;27;20031;-63
2023/09/26 09:28:59;;;;;;;12.75;9.40;;;18.50;99.90;;;;;;5125054;27;20340;-64
2023/09/26 09:31:27;;;;;;;13.65;8.75;;;18.50;99.90;;;;;;5125108;27;20122;-64
2023/09/26 09:33:52;;;;;;;10.32;7.80;;;18.50;99.90;;;;;;5105780;27;20031;-63
2023/09/26 09:36:19;;;;;;;13.27;8.40;;;18.50;99.90;;;;;;5124572;27;20115;-64
2023/09/26 09:38:45;;;;;;;11.52;8.07;;;18.50;99.90;;;;;;5089235;27;20039;-65
2023/09/26 09:41:10;;;;;;;11.10;8.52;;;18.60;99.90;;;;;;5124989;27;20490;-64
2023/09/26 09:43:37;;;;;;;11.15;8.45;;;18.70;99.90;;;;;;5125229;27;20039;-64
2023/09/26 09:46:10;;;;;;;12.40;8.10;;;18.70;99.90;;;;;;5124724;27;20032;-64
2023/09/26 09:48:46;;;;;;;12.07;8.43;;;18.80;99.90;;;;;;5105492;27;20035;-64
2023/09/26 09:51:14;;;;;;;11.65;8.25;;;18.70;99.90;;;;;;5124741;27;20098;-64
2023/09/26 09:53:48;;;;;;;12.05;8.73;;;18.70;99.90;;;;;;5123481;27;20047;-64
2023/09/26 09:56:19;;;;;;;10.80;8.10;;;18.70;99.90;;;;;;5123723;27;20043;-62
2023/09/26 09:58:49;;;;;;;12.07;8.25;;;18.70;99.90;;;;;;5124543;27;20031;-64
2023/09/26 10:01:18;;;;;;;13.27;7.95;;;18.70;99.90;;;;;;5104756;27;20043;-64
2023/09/26 10:03:46;;;;;;;12.77;8.07;;;18.70;99.90;;;;;;5124009;27;20065;-63
2023/09/26 10:06:11;;;;;;;10.48;8.23;;;18.70;99.90;;;;;;5123437;27;20045;-63
2023/09/26 10:08:38;;;;;;;14.40;8.57;;;18.70;99.90;;;;;;5124110;27;20110;-64
2023/09/26 10:11:06;;;;;;;13.23;8.13;;;18.80;99.90;;;;;;5123561;27;20038;-63
2023/09/26 10:13:33;;;;;;;12.23;7.80;;;18.90;99.90;;;;;;5124346;27;20401;-64
2023/09/26 10:16:06;;;;;;;13.05;8.15;;;18.90;99.90;;;;;;5124388;27;20043;-64
2023/09/26 10:18:35;;;;;;;12.05;8.07;;;18.90;99.90;;;;;;5124629;27;20071;-62
2023/09/26 10:21:01;;;;;;;11.88;8.52;;;19.00;99.90;;;;;;5122956;27;20034;-64
2023/09/26 10:23:27;;;;;;;11.18;7.97;;;19.00;99.90;;;;;;5122468;27;20066;-63
2023/09/26 10:25:53;;;;;;;15.55;8.77;;;19.00;99.90;;;;;;5125828;27;20031;-62
2023/09/26 10:28:20;;;;;;;11.50;7.70;;;19.10;99.90;;;;;;5119226;27;20142;-63
2023/09/26 10:30:53;;;;;;;11.43;7.78;;;19.20;99.90;;;;;;5120294;27;20053;-63
2023/09/26 10:33:18;;;;;;;11.83;8.13;;;19.20;99.90;;;;;;5117971;27;20123;-63
2023/09/26 10:35:44;;;;;;;9.60;7.95;;;19.20;99.90;;;;;;5100943;27;20066;-63
2023/09/26 10:38:18;;;;;;;11.55;7.90;;;19.30;99.90;;;;;;5122628;27;20039;-64
2023/09/26 10:40:45;;;;;;;10.80;7.75;;;19.40;99.90;;;;;;5124113;27;20110;-64
2023/09/26 10:43:11;;;;;;;12.55;7.93;;;19.50;99.90;;;;;;5121164;27;20031;-64
2023/09/26 10:45:37;;;;;;;12.30;8.52;;;19.60;99.90;;;;;;5123106;27;20080;-65
2023/09/26 10:48:06;;;;;;;13.57;8.50;;;20.00;99.90;;;;;;5123087;27;20058;-63
2023/09/26 10:50:32;;;;;;;10.88;7.53;;;19.80;99.90;;;;;;5122861;27;20042;-64
2023/09/26 10:52:58;;;;;;;11.65;8.02;;;19.90;99.90;;;;;;5105477;28;20051;-62
2023/09/26 10:55:25;;;;;;;11.93;7.47;;;19.90;99.90;;;;;;5124015;28;20072;-63
2023/09/26 10:57:53;;;;;;;12.27;8.02;;;19.90;99.90;;;;;;5124362;28;21254;-63
2023/09/26 11:00:19;;;;;;;12.10;7.72;;;19.90;99.90;;;;;;5123305;28;20112;-64
2023/09/26 11:02:47;;;;;;;11.40;7.40;;;19.90;99.90;;;;;;5106926;28;20031;-63
2023/09/26 11:05:15;;;;;;;12.38;7.82;;;19.90;99.90;;;;;;5125655;27;20027;-63
2023/09/26 11:07:42;;;;;;;13.40;8.57;;;19.90;99.90;;;;;;5127212;27;20047;-64
2023/09/26 11:10:13;;;;;;;10.10;6.88;;;19.90;99.90;;;;;;5124640;27;20062;-62
2023/09/26 11:12:39;;;;;;;12.25;8.43;;;19.90;99.90;;;;;;5124905;27;20095;-62
2023/09/26 11:15:05;;;;;;;12.05;8.57;;;20.00;99.90;;;;;;5125990;27;20065;-62
2023/09/26 11:17:32;;;;;;;10.48;8.05;;;20.00;99.90;;;;;;5125254;27;20055;-62
2023/09/26 11:19:59;;;;;;;13.80;8.05;;;20.10;99.90;;;;;;5121678;27;20410;-62
2023/09/26 11:22:25;;;;;;;12.13;7.80;;;20.10;99.90;;;;;;5119967;27;20456;-62
2023/09/26 11:25:08;;;;;;;12.60;7.60;;;20.10;99.90;;;;;;5104433;27;20039;-62
2023/09/26 11:27:42;;;;;;;10.65;7.68;;;20.20;99.90;;;;;;5116254;27;20138;-63
2023/09/26 11:30:12;;;;;;;11.25;7.97;;;20.20;99.90;;;;;;5125847;27;20110;-62
2023/09/26 11:32:39;;;;;;;11.55;8.05;;;20.20;99.90;;;;;;5115078;27;20087;-62
2023/09/26 11:35:06;;;;;;;10.77;7.43;;;20.30;99.90;;;;;;5110010;27;20115;-59
2023/09/26 11:37:32;;;;;;;10.65;7.88;;;20.50;99.90;;;;;;5121873;27;20055;-63
2023/09/26 11:39:59;;;;;;;12.30;7.63;;;20.60;99.90;;;;;;5120608;27;20039;-62
2023/09/26 11:42:24;;;;;;;11.60;7.68;;;20.70;99.90;;;;;;5104969;27;20164;-61
2023/09/26 11:44:54;;;;;;;10.43;7.10;;;20.90;99.90;;;;;;5126088;27;20605;-61
2023/09/26 11:47:21;;;;;;;11.05;6.97;;;21.00;99.90;;;;;;5106246;27;20059;-62
2023/09/26 11:49:48;;;;;;;10.13;7.18;;;21.10;99.90;;;;;;5121829;27;20092;-62
2023/09/26 11:52:14;;;;;;;9.27;7.18;;;21.30;99.90;;;;;;5100417;27;20035;-58
2023/09/26 11:54:40;;;;;;;10.65;7.68;;;21.30;99.90;;;;;;5087322;27;20031;-58
2023/09/26 11:57:06;;;;;;;9.80;7.07;;;21.40;99.90;;;;;;5124065;27;20046;-61
2023/09/26 11:59:32;;;;;;;11.38;7.13;;;21.50;99.90;;;;;;5122967;27;20040;-60
2023/09/26 12:02:00;;;;;;;16.10;8.60;;;21.60;99.90;;;;;;5123568;27;20035;-59
2023/09/26 12:04:26;;;;;;;11.68;7.47;;;21.60;99.90;;;;;;5121880;27;20046;-59
2023/09/26 12:06:52;;;;;;;11.43;7.05;;;21.70;99.90;;;;;;5095357;27;20664;-60
2023/09/26 12:09:19;;;;;;;10.02;7.13;;;21.90;99.90;;;;;;5114510;27;20039;-60
2023/09/26 12:11:51;;;;;;;9.60;6.35;;;21.90;99.90;;;;;;5097250;27;20477;-63
2023/09/26 12:14:17;;;;;;;11.52;6.82;;;21.90;99.90;;;;;;5121106;27;20095;-62
2023/09/26 12:16:44;;;;;;;10.15;6.53;;;21.90;99.90;;;;;;5122254;27;21655;-60
2023/09/26 12:19:10;;;;;;;10.05;7.00;;;21.90;99.90;;;;;;5122137;27;20046;-60
2023/09/26 12:21:36;;;;;;;9.45;6.25;;;22.00;99.90;;;;;;5121150;27;20131;-62
2023/09/26 12:24:02;;;;;;;9.73;6.50;;;22.00;99.90;;;;;;5114638;27;20134;-62
2023/09/26 12:26:28;;;;;;;9.27;6.65;;;22.00;99.90;;;;;;5117299;27;20051;-60
2023/09/26 12:28:54;;;;;;;10.20;7.13;;;22.00;99.90;;;;;;5122157;27;20023;-61
2023/09/26 12:31:20;;;;;;;9.88;7.00;;;22.10;99.90;;;;;;5122965;27;20116;-61